Time;durP1;ratioP1;P1;durP2;ratioP2;P2;SDS_P1;SDS_P2;PMS_P1;PMS_P2;Temp;Humidity;BMP_temperature;BMP_pressure;BME280_temperature;BME280_humidity;BME280_pressure;Samples;Min_cycle;Max_cycle;Signal;HPM_P1;HPM_P2
2021/11/30 00:02:20;;;;;;;;;11.25;10.25;;;;;;;;5034154;28;46476;-71
2021/11/30 00:04:45;;;;;;;;;9.75;9.00;;;;;;;;5034052;28;45260;-71
2021/11/30 00:07:10;;;;;;;;;15.00;11.50;;;;;;;;5036399;28;45251;-72
2021/11/30 00:12:09;;;;;;;;;12.25;12.25;;;;;;;;5037924;28;45406;-71
2021/11/30 00:14:36;;;;;;;;;15.00;11.00;;;;;;;;5037048;28;45449;-72
2021/11/30 00:17:01;;;;;;;;;12.75;10.25;;;;;;;;5037539;28;45347;-73
2021/11/30 00:19:26;;;;;;;;;12.75;11.00;;;;;;;;5037523;28;45380;-72
2021/11/30 00:21:52;;;;;;;;;15.00;13.00;;;;;;;;5037247;28;47212;-71
2021/11/30 00:24:17;;;;;;;;;15.75;15.50;;;;;;;;5038121;28;45475;-71
2021/11/30 00:26:42;;;;;;;;;12.25;9.75;;;;;;;;5037364;28;45706;-72
2021/11/30 00:29:07;;;;;;;;;12.75;11.50;;;;;;;;5035473;28;45774;-73
2021/11/30 00:31:32;;;;;;;;;8.75;8.75;;;;;;;;5037328;28;46839;-71
2021/11/30 00:33:58;;;;;;;;;12.00;10.25;;;;;;;;5021528;28;45441;-71
2021/11/30 00:36:23;;;;;;;;;15.50;13.50;;;;;;;;5038010;28;45275;-72
2021/11/30 00:38:48;;;;;;;;;2.00;0.50;;;;;;;;5037331;28;45551;-72
2021/11/30 00:41:13;;;;;;;;;9.50;9.00;;;;;;;;5036805;28;46045;-70
2021/11/30 00:43:40;;;;;;;;;10.50;8.00;;;;;;;;5036684;28;45503;-71
2021/11/30 00:46:39;;;;;;;;;13.50;10.50;;;;;;;;5037213;28;45506;-72
2021/11/30 00:48:57;;;;;;;;;8.25;7.50;;;;;;;;5019770;28;45589;-71
2021/11/30 00:51:22;;;;;;;;;11.75;10.25;;;;;;;;5037558;28;46562;-72
2021/11/30 00:53:48;;;;;;;;;12.25;8.50;;;;;;;;5035562;28;45700;-71
2021/11/30 00:56:14;;;;;;;;;12.75;11.00;;;;;;;;5036970;28;45568;-71
2021/11/30 00:58:40;;;;;;;;;12.25;12.25;;;;;;;;5036543;28;45373;-70
2021/11/30 01:01:06;;;;;;;;;16.50;10.25;;;;;;;;5036717;28;47348;-72
2021/11/30 01:03:31;;;;;;;;;16.50;13.25;;;;;;;;5037156;28;45421;-72
2021/11/30 01:05:57;;;;;;;;;10.50;9.00;;;;;;;;5036972;28;45334;-71
2021/11/30 01:08:22;;;;;;;;;11.00;10.50;;;;;;;;5036614;28;45391;-71
2021/11/30 01:10:48;;;;;;;;;13.25;10.50;;;;;;;;5036323;28;45976;-71
2021/11/30 01:13:14;;;;;;;;;14.00;10.50;;;;;;;;5036416;28;45537;-73
2021/11/30 01:15:40;;;;;;;;;7.75;7.75;;;;;;;;5036662;28;47434;-71
2021/11/30 01:18:05;;;;;;;;;11.00;8.00;;;;;;;;5036794;28;45443;-72
2021/11/30 01:20:30;;;;;;;;;8.50;8.50;;;;;;;;5034645;28;47110;-71
2021/11/30 01:22:56;;;;;;;;;10.75;7.25;;;;;;;;5036174;28;45725;-72
2021/11/30 01:25:21;;;;;;;;;6.50;6.50;;;;;;;;5036419;28;45478;-73
2021/11/30 01:27:47;;;;;;;;;8.75;8.75;;;;;;;;5036002;28;45457;-72
2021/11/30 01:30:14;;;;;;;;;8.00;7.00;;;;;;;;5036538;28;46170;-71
2021/11/30 01:32:39;;;;;;;;;10.75;10.00;;;;;;;;5036165;28;45585;-72
2021/11/30 01:35:05;;;;;;;;;7.25;5.50;;;;;;;;5036484;28;49695;-71
2021/11/30 01:37:31;;;;;;;;;13.25;10.00;;;;;;;;5036315;28;45577;-71
2021/11/30 01:39:57;;;;;;;;;8.50;8.25;;;;;;;;5036279;28;46196;-72
2021/11/30 01:42:22;;;;;;;;;10.00;10.00;;;;;;;;5036591;28;45345;-72
2021/11/30 01:44:54;;;;;;;;;11.75;11.75;;;;;;;;5036334;28;45596;-72
2021/11/30 01:47:35;;;;;;;;;12.25;12.25;;;;;;;;5036204;28;45813;-72
2021/11/30 01:50:03;;;;;;;;;15.25;11.00;;;;;;;;5035929;28;46114;-71
2021/11/30 01:52:29;;;;;;;;;12.75;10.25;;;;;;;;5036362;28;45521;-72
2021/11/30 01:54:55;;;;;;;;;10.75;10.75;;;;;;;;5036274;28;45790;-72
2021/11/30 01:57:21;;;;;;;;;11.25;11.25;;;;;;;;5037147;28;45377;-71
2021/11/30 01:59:47;;;;;;;;;17.25;12.50;;;;;;;;5036030;28;45458;-71
2021/11/30 02:02:13;;;;;;;;;12.00;8.75;;;;;;;;5036382;28;45531;-71
2021/11/30 02:04:39;;;;;;;;;13.75;11.50;;;;;;;;5036353;28;45427;-71
2021/11/30 02:07:05;;;;;;;;;12.25;10.50;;;;;;;;5036355;28;45982;-71
2021/11/30 02:09:30;;;;;;;;;13.25;10.50;;;;;;;;5036607;28;46190;-71
2021/11/30 02:11:56;;;;;;;;;9.00;9.00;;;;;;;;5036939;28;45480;-72
2021/11/30 02:14:21;;;;;;;;;14.00;12.50;;;;;;;;5036456;28;45259;-71
2021/11/30 02:16:47;;;;;;;;;14.25;11.00;;;;;;;;5036302;28;45475;-72
2021/11/30 02:19:12;;;;;;;;;10.00;10.00;;;;;;;;5035777;28;46298;-72
2021/11/30 02:21:40;;;;;;;;;13.00;11.25;;;;;;;;5036514;28;45447;-72
2021/11/30 02:24:07;;;;;;;;;13.25;11.50;;;;;;;;5037954;28;45647;-72
2021/11/30 02:26:34;;;;;;;;;14.75;12.50;;;;;;;;5038077;28;45586;-71
2021/11/30 02:29:01;;;;;;;;;4.00;4.00;;;;;;;;5037079;28;46119;-71
2021/11/30 02:31:28;;;;;;;;;13.50;12.25;;;;;;;;5036667;28;45505;-72
2021/11/30 02:33:54;;;;;;;;;13.00;12.00;;;;;;;;5037352;28;45401;-71
2021/11/30 02:36:29;;;;;;;;;12.50;11.50;;;;;;;;5038853;28;45836;-72
2021/11/30 02:38:55;;;;;;;;;14.00;13.00;;;;;;;;5037528;28;46419;-72
2021/11/30 02:41:21;;;;;;;;;17.00;15.00;;;;;;;;5040015;28;45362;-71
2021/11/30 02:43:46;;;;;;;;;14.00;12.50;;;;;;;;5039023;28;47171;-72
2021/11/30 02:46:26;;;;;;;;;13.25;13.25;;;;;;;;5039058;28;45435;-71
2021/11/30 02:48:51;;;;;;;;;11.00;11.00;;;;;;;;5038601;28;46266;-70
2021/11/30 02:51:16;;;;;;;;;11.00;10.00;;;;;;;;5040430;28;45593;-72
2021/11/30 02:53:42;;;;;;;;;16.75;13.25;;;;;;;;5039756;28;45533;-70
2021/11/30 02:56:07;;;;;;;;;11.25;11.00;;;;;;;;5039490;28;45387;-71
2021/11/30 02:58:32;;;;;;;;;15.50;15.50;;;;;;;;5039938;28;46162;-70
2021/11/30 03:00:58;;;;;;;;;13.00;13.00;;;;;;;;5039313;28;45272;-72
2021/11/30 03:03:25;;;;;;;;;10.75;8.00;;;;;;;;5039147;28;45510;-72
2021/11/30 03:05:51;;;;;;;;;10.25;9.00;;;;;;;;5036622;28;45411;-71
2021/11/30 03:08:16;;;;;;;;;12.50;12.25;;;;;;;;5036385;28;45894;-70
2021/11/30 03:10:41;;;;;;;;;13.00;13.00;;;;;;;;5036270;28;45405;-73
2021/11/30 03:13:06;;;;;;;;;11.50;9.75;;;;;;;;5037161;28;45551;-71
2021/11/30 03:15:31;;;;;;;;;15.75;13.00;;;;;;;;5036435;28;45287;-71
2021/11/30 03:17:57;;;;;;;;;12.75;12.75;;;;;;;;5035196;28;48504;-70
2021/11/30 03:20:22;;;;;;;;;13.00;12.00;;;;;;;;5034602;28;45503;-72
2021/11/30 03:22:47;;;;;;;;;17.00;14.75;;;;;;;;5034460;28;45425;-70
2021/11/30 03:25:14;;;;;;;;;10.00;9.25;;;;;;;;5034900;28;45260;-71
2021/11/30 03:27:39;;;;;;;;;13.25;11.00;;;;;;;;5034442;28;45439;-71
2021/11/30 03:30:06;;;;;;;;;20.00;11.75;;;;;;;;5035122;28;45241;-71
2021/11/30 03:35:15;;;;;;;;;15.50;14.00;;;;;;;;5035064;28;45593;-72
2021/11/30 03:37:40;;;;;;;;;12.25;10.75;;;;;;;;5034250;28;47238;-71
2021/11/30 03:40:10;;;;;;;;;11.75;10.00;;;;;;;;5034636;28;45158;-71
2021/11/30 03:42:35;;;;;;;;;13.75;12.25;;;;;;;;5034694;28;45327;-71
2021/11/30 03:45:00;;;;;;;;;15.50;13.50;;;;;;;;5034692;28;45304;-72
2021/11/30 03:47:25;;;;;;;;;14.25;13.50;;;;;;;;5034028;28;47078;-71
2021/11/30 03:49:51;;;;;;;;;10.75;10.75;;;;;;;;5034026;28;45522;-71
2021/11/30 03:52:16;;;;;;;;;11.25;11.25;;;;;;;;5034003;28;45490;-72
2021/11/30 03:54:41;;;;;;;;;12.75;11.00;;;;;;;;5034107;28;45419;-71
2021/11/30 03:57:06;;;;;;;;;11.25;7.50;;;;;;;;5034371;28;46172;-70
2021/11/30 03:59:31;;;;;;;;;15.50;14.25;;;;;;;;5033937;28;45513;-71
2021/11/30 04:01:57;;;;;;;;;14.75;12.75;;;;;;;;5034292;28;45400;-71
2021/11/30 04:04:29;;;;;;;;;13.00;11.25;;;;;;;;5034254;28;45454;-72
2021/11/30 04:06:56;;;;;;;;;13.50;13.00;;;;;;;;5033767;28;45386;-71
2021/11/30 04:09:21;;;;;;;;;11.00;11.00;;;;;;;;5034674;28;45298;-72
2021/11/30 04:11:47;;;;;;;;;13.00;13.00;;;;;;;;5034128;28;45465;-71
2021/11/30 04:14:12;;;;;;;;;14.00;14.00;;;;;;;;5033970;28;45268;-72
2021/11/30 04:16:38;;;;;;;;;15.25;13.50;;;;;;;;5033551;28;45637;-72
2021/11/30 04:19:03;;;;;;;;;13.50;11.25;;;;;;;;5033450;28;45558;-72
2021/11/30 04:21:29;;;;;;;;;16.50;12.50;;;;;;;;5034240;28;45477;-72
2021/11/30 04:23:55;;;;;;;;;15.25;13.75;;;;;;;;5033914;28;45129;-73
2021/11/30 04:26:21;;;;;;;;;13.25;12.50;;;;;;;;5033295;28;46358;-72
2021/11/30 04:28:46;;;;;;;;;15.25;12.50;;;;;;;;5033361;28;45467;-70
2021/11/30 04:31:12;;;;;;;;;10.50;10.50;;;;;;;;5033818;28;45540;-72
2021/11/30 04:33:37;;;;;;;;;13.75;9.00;;;;;;;;5033980;28;45284;-71
2021/11/30 04:36:06;;;;;;;;;9.75;9.75;;;;;;;;5033440;28;47338;-72
2021/11/30 04:38:31;;;;;;;;;12.75;12.25;;;;;;;;5033511;28;45559;-71
2021/11/30 04:40:56;;;;;;;;;14.50;13.50;;;;;;;;5033720;28;45312;-71
2021/11/30 04:43:21;;;;;;;;;15.75;13.00;;;;;;;;5033495;28;45299;-71
2021/11/30 04:45:58;;;;;;;;;17.00;13.50;;;;;;;;5033263;28;45401;-70
2021/11/30 04:48:25;;;;;;;;;16.50;14.75;;;;;;;;5033598;28;45682;-72
2021/11/30 04:50:52;;;;;;;;;12.75;12.00;;;;;;;;5032998;28;45517;-71
2021/11/30 04:53:20;;;;;;;;;13.50;12.75;;;;;;;;5035568;28;45206;-71
2021/11/30 04:55:45;;;;;;;;;9.75;9.50;;;;;;;;5036582;28;46240;-72
2021/11/30 04:58:11;;;;;;;;;10.00;10.00;;;;;;;;5035563;28;45530;-72
2021/11/30 05:00:36;;;;;;;;;13.25;12.00;;;;;;;;5036783;28;45370;-73
2021/11/30 05:03:02;;;;;;;;;8.50;8.50;;;;;;;;5036954;28;45521;-72
2021/11/30 05:05:27;;;;;;;;;14.00;10.00;;;;;;;;5035973;28;45617;-72
2021/11/30 05:07:52;;;;;;;;;20.75;15.00;;;;;;;;5036392;28;45516;-72
2021/11/30 05:10:18;;;;;;;;;12.25;10.00;;;;;;;;5036813;28;45292;-72
2021/11/30 05:12:43;;;;;;;;;12.75;9.25;;;;;;;;5036271;28;45415;-71
2021/11/30 05:15:09;;;;;;;;;17.75;14.00;;;;;;;;5036624;28;45523;-71
2021/11/30 05:17:34;;;;;;;;;13.00;10.25;;;;;;;;5035865;28;45427;-71
2021/11/30 05:20:00;;;;;;;;;9.50;9.50;;;;;;;;5035772;28;45482;-72
2021/11/30 05:22:26;;;;;;;;;14.25;11.00;;;;;;;;5036266;28;45444;-72
2021/11/30 05:24:51;;;;;;;;;9.50;7.75;;;;;;;;5036359;28;45455;-72
2021/11/30 05:27:17;;;;;;;;;11.00;10.00;;;;;;;;5036687;28;45344;-72
2021/11/30 05:29:42;;;;;;;;;13.50;10.00;;;;;;;;5034548;28;45286;-71
2021/11/30 05:32:07;;;;;;;;;13.00;13.00;;;;;;;;5035692;28;45637;-72
2021/11/30 05:34:32;;;;;;;;;8.25;6.00;;;;;;;;5035195;28;46276;-71
2021/11/30 05:36:57;;;;;;;;;9.00;8.00;;;;;;;;5034687;28;45731;-72
2021/11/30 05:39:23;;;;;;;;;11.50;9.25;;;;;;;;5036583;28;45459;-73
2021/11/30 05:41:48;;;;;;;;;10.50;8.00;;;;;;;;5035777;28;45403;-72
2021/11/30 05:44:13;;;;;;;;;11.25;10.50;;;;;;;;5035430;28;45398;-72
2021/11/30 05:46:38;;;;;;;;;9.75;8.50;;;;;;;;5035283;28;45672;-71
2021/11/30 05:49:05;;;;;;;;;8.00;7.50;;;;;;;;5034913;28;45349;-72
2021/11/30 05:51:30;;;;;;;;;10.00;7.75;;;;;;;;5036039;28;45615;-72
2021/11/30 05:53:55;;;;;;;;;9.00;9.00;;;;;;;;5035234;28;47003;-73
2021/11/30 05:56:21;;;;;;;;;9.00;8.00;;;;;;;;5035111;28;45415;-71
2021/11/30 05:58:47;;;;;;;;;6.50;4.75;;;;;;;;5034968;28;45552;-71
2021/11/30 06:01:22;;;;;;;;;11.00;9.25;;;;;;;;5034908;28;45581;-72
2021/11/30 06:06:18;;;;;;;;;8.00;8.00;;;;;;;;5035551;28;45316;-73
2021/11/30 06:08:44;;;;;;;;;7.75;7.00;;;;;;;;5034885;28;45453;-72
2021/11/30 06:11:09;;;;;;;;;12.50;10.00;;;;;;;;5034624;28;45415;-72
2021/11/30 06:13:34;;;;;;;;;9.75;8.00;;;;;;;;5034762;28;46376;-72
2021/11/30 06:16:00;;;;;;;;;13.00;10.00;;;;;;;;5034849;28;45537;-73
2021/11/30 06:18:25;;;;;;;;;11.75;8.50;;;;;;;;5035562;28;45395;-73
2021/11/30 06:20:50;;;;;;;;;13.00;11.00;;;;;;;;5034733;28;47824;-73
2021/11/30 06:23:16;;;;;;;;;9.50;9.50;;;;;;;;5034642;28;45999;-71
2021/11/30 06:25:41;;;;;;;;;13.50;10.00;;;;;;;;5034895;28;45553;-73
2021/11/30 06:28:06;;;;;;;;;8.50;7.00;;;;;;;;5034636;28;45393;-72
2021/11/30 06:30:31;;;;;;;;;6.75;5.00;;;;;;;;5034751;28;45376;-75
2021/11/30 06:32:56;;;;;;;;;11.25;9.00;;;;;;;;5035135;28;47067;-76
2021/11/30 06:35:22;;;;;;;;;11.00;10.00;;;;;;;;5034348;28;45493;-75
2021/11/30 06:37:47;;;;;;;;;9.00;9.00;;;;;;;;5034398;28;45364;-76
2021/11/30 06:40:12;;;;;;;;;7.00;7.00;;;;;;;;5034254;28;45558;-77
2021/11/30 06:42:38;;;;;;;;;8.50;8.50;;;;;;;;5033992;28;46000;-77
2021/11/30 06:45:03;;;;;;;;;10.25;10.25;;;;;;;;5034265;28;45408;-75
2021/11/30 06:47:29;;;;;;;;;10.00;10.00;;;;;;;;5033815;28;45529;-76
2021/11/30 06:49:54;;;;;;;;;7.50;7.50;;;;;;;;5034123;28;45479;-76
2021/11/30 06:52:20;;;;;;;;;8.75;7.75;;;;;;;;5033621;28;46383;-76
2021/11/30 06:54:51;;;;;;;;;10.75;9.75;;;;;;;;5034235;28;45289;-75
2021/11/30 06:57:16;;;;;;;;;9.50;9.50;;;;;;;;5034746;28;45431;-75
2021/11/30 06:59:43;;;;;;;;;7.75;7.75;;;;;;;;5033667;28;45459;-75
2021/11/30 07:02:09;;;;;;;;;7.75;7.75;;;;;;;;5034101;28;46236;-74
2021/11/30 07:04:38;;;;;;;;;11.75;10.50;;;;;;;;5033735;28;45378;-74
2021/11/30 07:07:12;;;;;;;;;11.25;8.75;;;;;;;;5033322;28;45508;-76
2021/11/30 07:09:57;;;;;;;;;9.50;9.50;;;;;;;;5034476;28;45380;-76
2021/11/30 07:15:06;;;;;;;;;10.25;10.00;;;;;;;;5032845;28;45464;-76
2021/11/30 07:17:32;;;;;;;;;13.75;11.50;;;;;;;;5033635;28;45300;-75
2021/11/30 07:19:57;;;;;;;;;11.25;10.25;;;;;;;;5040351;28;45262;-76
2021/11/30 07:22:23;;;;;;;;;12.00;10.50;;;;;;;;5041168;28;45488;-76
2021/11/30 07:24:48;;;;;;;;;13.00;11.75;;;;;;;;5039982;28;45370;-76
2021/11/30 07:27:13;;;;;;;;;11.50;11.50;;;;;;;;5034283;28;45424;-75
2021/11/30 07:29:39;;;;;;;;;8.25;8.25;;;;;;;;5033167;28;45763;-77
2021/11/30 07:32:04;;;;;;;;;10.00;9.00;;;;;;;;5033340;28;46371;-77
2021/11/30 07:34:30;;;;;;;;;12.50;11.00;;;;;;;;5032751;28;45440;-76
2021/11/30 07:36:55;;;;;;;;;15.25;11.25;;;;;;;;5033024;28;45446;-75
2021/11/30 07:39:21;;;;;;;;;15.00;11.50;;;;;;;;5033201;28;46976;-76
2021/11/30 07:41:46;;;;;;;;;10.50;9.25;;;;;;;;5032654;28;46212;-76
2021/11/30 07:44:11;;;;;;;;;13.75;11.25;;;;;;;;5032857;28;45508;-74
2021/11/30 07:46:37;;;;;;;;;8.25;8.25;;;;;;;;5032896;28;45517;-71
2021/11/30 07:49:03;;;;;;;;;12.25;12.25;;;;;;;;5032152;28;45426;-71
2021/11/30 07:51:28;;;;;;;;;16.25;13.25;;;;;;;;5033030;28;45512;-72
2021/11/30 07:53:54;;;;;;;;;13.75;11.00;;;;;;;;5030978;28;45557;-70
2021/11/30 07:56:19;;;;;;;;;18.25;14.00;;;;;;;;5033150;28;45449;-71
2021/11/30 07:58:45;;;;;;;;;7.25;7.25;;;;;;;;5032837;28;45431;-71
2021/11/30 08:01:12;;;;;;;;;11.00;10.25;;;;;;;;5032230;28;46263;-69
2021/11/30 08:03:37;;;;;;;;;15.50;15.50;;;;;;;;5032771;28;45344;-70
2021/11/30 08:06:03;;;;;;;;;11.00;11.00;;;;;;;;5033028;28;45264;-71
2021/11/30 08:08:28;;;;;;;;;10.75;9.75;;;;;;;;5032535;28;45778;-71
2021/11/30 08:10:53;;;;;;;;;17.00;15.50;;;;;;;;5032455;28;45427;-72
2021/11/30 08:13:19;;;;;;;;;15.00;8.50;;;;;;;;5032154;28;45395;-72
2021/11/30 08:15:44;;;;;;;;;9.00;8.00;;;;;;;;5032681;28;45323;-71
2021/11/30 08:18:09;;;;;;;;;20.00;17.50;;;;;;;;5032952;28;45597;-72
2021/11/30 08:20:34;;;;;;;;;14.25;12.50;;;;;;;;5032403;28;46453;-71
2021/11/30 08:23:00;;;;;;;;;17.50;16.00;;;;;;;;5031176;28;45843;-71
2021/11/30 08:25:26;;;;;;;;;17.25;15.00;;;;;;;;5032564;28;45376;-71
2021/11/30 08:27:52;;;;;;;;;9.75;6.75;;;;;;;;5033476;28;45401;-71
2021/11/30 08:30:17;;;;;;;;;16.50;15.50;;;;;;;;5036754;28;46284;-71
2021/11/30 08:32:42;;;;;;;;;14.50;12.00;;;;;;;;5035668;28;45540;-71
2021/11/30 08:35:09;;;;;;;;;16.00;16.00;;;;;;;;5036066;28;45327;-71
2021/11/30 08:37:34;;;;;;;;;12.50;12.50;;;;;;;;5036096;28;45337;-71
2021/11/30 08:39:59;;;;;;;;;16.00;14.50;;;;;;;;5035342;28;45261;-69
2021/11/30 08:42:25;;;;;;;;;14.25;11.50;;;;;;;;5034432;28;45291;-69
2021/11/30 08:44:51;;;;;;;;;19.50;17.25;;;;;;;;5035507;28;45416;-70
2021/11/30 08:47:17;;;;;;;;;12.50;12.50;;;;;;;;5034587;28;45355;-71
2021/11/30 08:49:42;;;;;;;;;14.00;12.50;;;;;;;;5034673;28;45911;-71
2021/11/30 08:52:11;;;;;;;;;18.25;15.00;;;;;;;;5033769;28;45623;-71
2021/11/30 08:54:36;;;;;;;;;14.50;8.00;;;;;;;;5035420;28;45400;-69
2021/11/30 08:57:02;;;;;;;;;15.50;13.00;;;;;;;;5035262;28;45430;-70
2021/11/30 08:59:27;;;;;;;;;18.00;15.75;;;;;;;;5035219;28;45375;-72
2021/11/30 09:01:53;;;;;;;;;17.50;14.75;;;;;;;;5033512;28;45454;-72
2021/11/30 09:04:18;;;;;;;;;18.50;16.00;;;;;;;;5035245;28;45391;-71
2021/11/30 09:06:43;;;;;;;;;17.75;17.75;;;;;;;;5035479;28;45443;-75
2021/11/30 09:09:09;;;;;;;;;16.50;16.50;;;;;;;;5035695;28;45515;-72
2021/11/30 09:11:35;;;;;;;;;15.50;13.25;;;;;;;;5035041;28;45343;-71
2021/11/30 09:14:00;;;;;;;;;23.25;17.25;;;;;;;;5035603;28;45443;-72
2021/11/30 09:16:25;;;;;;;;;9.00;7.50;;;;;;;;5035227;28;45303;-74
2021/11/30 09:18:51;;;;;;;;;20.25;18.25;;;;;;;;5035633;28;46907;-71
2021/11/30 09:21:16;;;;;;;;;17.00;15.50;;;;;;;;5036171;28;45333;-73
2021/11/30 09:23:44;;;;;;;;;19.75;17.75;;;;;;;;5034950;28;45642;-69
2021/11/30 09:26:10;;;;;;;;;13.50;12.25;;;;;;;;5034782;28;45399;-72
2021/11/30 09:28:35;;;;;;;;;13.25;12.00;;;;;;;;5034844;28;46458;-72
2021/11/30 09:31:00;;;;;;;;;18.00;18.00;;;;;;;;5035563;28;45435;-72
2021/11/30 09:33:25;;;;;;;;;17.00;15.75;;;;;;;;5034609;28;45429;-72
2021/11/30 09:35:51;;;;;;;;;20.25;18.50;;;;;;;;5035115;28;45402;-72
2021/11/30 09:38:16;;;;;;;;;16.75;15.75;;;;;;;;5034796;28;47856;-71
2021/11/30 09:40:41;;;;;;;;;16.50;14.25;;;;;;;;5034939;28;45430;-70
2021/11/30 09:43:08;;;;;;;;;16.50;13.25;;;;;;;;5035083;28;45607;-71
2021/11/30 09:45:34;;;;;;;;;18.50;15.25;;;;;;;;5034565;28;45388;-72
2021/11/30 09:48:00;;;;;;;;;14.00;12.50;;;;;;;;5034345;28;45450;-71
2021/11/30 09:50:25;;;;;;;;;16.50;13.50;;;;;;;;5033732;28;45623;-71
2021/11/30 09:52:54;;;;;;;;;16.25;14.00;;;;;;;;5034678;28;45300;-72
2021/11/30 09:55:22;;;;;;;;;18.00;14.75;;;;;;;;5034504;28;45773;-70
2021/11/30 09:57:47;;;;;;;;;21.50;17.25;;;;;;;;5034759;28;46356;-70
2021/11/30 10:00:13;;;;;;;;;18.50;16.50;;;;;;;;5034809;28;45372;-69
2021/11/30 10:02:38;;;;;;;;;19.00;19.00;;;;;;;;5033078;28;45511;-71
2021/11/30 10:05:04;;;;;;;;;20.25;17.50;;;;;;;;5034257;28;45559;-72
2021/11/30 10:07:44;;;;;;;;;22.50;14.50;;;;;;;;5034372;28;45998;-71
2021/11/30 10:10:10;;;;;;;;;18.25;17.00;;;;;;;;5019783;28;45502;-72
2021/11/30 10:12:36;;;;;;;;;20.25;18.50;;;;;;;;5033355;28;45341;-71
2021/11/30 10:15:05;;;;;;;;;16.25;16.25;;;;;;;;5034764;28;45289;-72
2021/11/30 10:17:34;;;;;;;;;20.25;20.00;;;;;;;;5033373;28;46178;-71
2021/11/30 10:20:01;;;;;;;;;23.00;17.00;;;;;;;;5033346;28;45556;-71
2021/11/30 10:22:33;;;;;;;;;24.25;19.75;;;;;;;;5033346;28;45328;-72
2021/11/30 10:25:10;;;;;;;;;20.50;18.50;;;;;;;;5017707;28;45437;-72
2021/11/30 10:27:36;;;;;;;;;19.50;16.25;;;;;;;;5030972;28;47272;-72
2021/11/30 10:30:16;;;;;;;;;18.00;15.25;;;;;;;;5034019;28;45368;-72
2021/11/30 10:32:46;;;;;;;;;16.75;16.75;;;;;;;;5034023;28;45398;-72
2021/11/30 10:35:11;;;;;;;;;20.25;16.50;;;;;;;;5033713;28;45685;-70
2021/11/30 10:37:40;;;;;;;;;20.00;16.00;;;;;;;;5033276;28;46938;-70
2021/11/30 10:40:07;;;;;;;;;17.75;17.75;;;;;;;;5033654;28;45305;-72
2021/11/30 10:42:33;;;;;;;;;23.25;18.50;;;;;;;;5032591;28;45337;-72
2021/11/30 10:44:58;;;;;;;;;18.00;15.00;;;;;;;;5033102;28;45416;-72
2021/11/30 10:47:25;;;;;;;;;18.50;17.00;;;;;;;;5032892;28;45740;-72
2021/11/30 10:49:58;;;;;;;;;17.50;13.00;;;;;;;;5032005;28;45483;-72
2021/11/30 10:52:30;;;;;;;;;14.00;12.75;;;;;;;;5033891;28;45414;-72
2021/11/30 10:55:04;;;;;;;;;11.50;11.00;;;;;;;;5033985;28;45331;-71
2021/11/30 10:57:32;;;;;;;;;12.25;11.50;;;;;;;;5030534;28;46940;-71
2021/11/30 11:00:06;;;;;;;;;13.75;13.75;;;;;;;;5033958;28;45360;-72
2021/11/30 11:02:52;;;;;;;;;12.50;10.50;;;;;;;;5033350;28;45275;-72
2021/11/30 11:05:37;;;;;;;;;14.50;8.00;;;;;;;;5032532;28;45241;-71
2021/11/30 11:08:05;;;;;;;;;14.50;11.75;;;;;;;;5031647;28;45495;-71
2021/11/30 11:10:32;;;;;;;;;13.75;11.00;;;;;;;;5032847;28;45407;-72
2021/11/30 11:13:16;;;;;;;;;17.00;12.00;;;;;;;;5033382;28;45418;-72
2021/11/30 11:15:41;;;;;;;;;9.75;9.75;;;;;;;;5030968;28;45487;-72
2021/11/30 11:18:18;;;;;;;;;11.50;10.75;;;;;;;;5032150;28;46387;-72
2021/11/30 11:20:44;;;;;;;;;16.50;15.00;;;;;;;;5032547;28;45338;-72
2021/11/30 11:23:18;;;;;;;;;12.75;11.75;;;;;;;;5032784;28;45166;-72
2021/11/30 11:25:43;;;;;;;;;12.50;10.25;;;;;;;;5032697;28;45287;-74
2021/11/30 11:28:09;;;;;;;;;11.75;11.00;;;;;;;;5033032;28;45556;-72
2021/11/30 11:30:34;;;;;;;;;15.00;14.00;;;;;;;;5034696;28;45542;-73
2021/11/30 11:32:59;;;;;;;;;11.50;11.50;;;;;;;;5035753;28;45517;-76
2021/11/30 11:35:24;;;;;;;;;14.50;12.50;;;;;;;;5033922;28;45466;-72
2021/11/30 11:37:52;;;;;;;;;13.50;11.50;;;;;;;;5036521;28;46780;-74
2021/11/30 11:40:17;;;;;;;;;13.50;8.00;;;;;;;;5036556;28;45312;-74
2021/11/30 11:42:43;;;;;;;;;15.25;11.25;;;;;;;;5034543;28;45426;-74
2021/11/30 11:45:08;;;;;;;;;11.50;11.50;;;;;;;;5035364;28;45578;-73
2021/11/30 11:47:35;;;;;;;;;16.75;14.00;;;;;;;;5035664;28;46050;-72
2021/11/30 11:50:09;;;;;;;;;13.50;13.50;;;;;;;;5033923;28;45502;-72
2021/11/30 11:52:37;;;;;;;;;14.25;12.50;;;;;;;;5032544;28;45272;-73
2021/11/30 11:55:05;;;;;;;;;15.00;12.00;;;;;;;;5032800;28;45406;-71
2021/11/30 11:57:31;;;;;;;;;11.50;9.50;;;;;;;;5034910;28;46534;-73
2021/11/30 12:00:13;;;;;;;;;13.00;12.75;;;;;;;;5034871;28;45441;-74
2021/11/30 12:02:47;;;;;;;;;15.50;12.00;;;;;;;;5035304;28;45441;-73
2021/11/30 12:05:12;;;;;;;;;14.75;13.25;;;;;;;;5036420;28;45525;-73
2021/11/30 12:07:57;;;;;;;;;13.50;12.25;;;;;;;;5036111;28;46449;-72
2021/11/30 12:10:24;;;;;;;;;6.75;5.75;;;;;;;;5035571;28;45587;-72
2021/11/30 12:13:20;;;;;;;;;14.75;14.25;;;;;;;;5035096;28;45428;-72
2021/11/30 12:15:54;;;;;;;;;14.00;13.25;;;;;;;;5032486;28;45349;-71
2021/11/30 12:18:32;;;;;;;;;10.00;10.00;;;;;;;;5035410;28;46390;-71
2021/11/30 12:21:08;;;;;;;;;15.75;13.00;;;;;;;;5035398;28;45370;-72
2021/11/30 12:23:34;;;;;;;;;12.50;11.00;;;;;;;;5034881;28;45515;-72
2021/11/30 12:25:59;;;;;;;;;11.25;11.25;;;;;;;;5035155;28;45355;-72
2021/11/30 12:28:31;;;;;;;;;14.50;14.25;;;;;;;;5035052;28;45964;-72
2021/11/30 12:30:58;;;;;;;;;19.25;16.25;;;;;;;;5034935;28;45528;-73
2021/11/30 12:33:29;;;;;;;;;16.50;16.50;;;;;;;;5035206;28;45390;-71
2021/11/30 12:36:12;;;;;;;;;12.25;11.50;;;;;;;;5035575;28;45254;-73
2021/11/30 12:38:40;;;;;;;;;14.75;13.75;;;;;;;;5033437;28;46305;-73
2021/11/30 12:41:24;;;;;;;;;16.00;12.25;;;;;;;;5034110;28;45570;-72
2021/11/30 12:43:50;;;;;;;;;21.75;15.25;;;;;;;;5035015;28;45285;-72
2021/11/30 12:46:36;;;;;;;;;11.00;10.25;;;;;;;;5035169;28;45282;-73
2021/11/30 12:49:03;;;;;;;;;12.75;10.75;;;;;;;;5018004;28;46063;-74
2021/11/30 12:51:28;;;;;;;;;32.75;31.25;;;;;;;;5031455;28;45549;-74
2021/11/30 12:53:55;;;;;;;;;8.50;7.25;;;;;;;;5035446;28;45473;-74
2021/11/30 12:56:39;;;;;;;;;14.75;14.00;;;;;;;;5033214;28;45647;-75
2021/11/30 12:59:04;;;;;;;;;15.75;11.50;;;;;;;;5034589;28;47008;-74
2021/11/30 13:01:29;;;;;;;;;6.50;5.75;;;;;;;;5035135;28;45406;-73
2021/11/30 13:04:13;;;;;;;;;11.50;11.25;;;;;;;;5034864;28;45315;-73
2021/11/30 13:06:57;;;;;;;;;16.25;15.00;;;;;;;;5032276;28;45313;-74
2021/11/30 13:09:34;;;;;;;;;10.25;10.25;;;;;;;;5034500;28;46181;-73
2021/11/30 13:12:00;;;;;;;;;10.00;10.00;;;;;;;;5034672;28;45409;-74
2021/11/30 13:14:25;;;;;;;;;13.75;10.00;;;;;;;;5033149;28;45358;-74
2021/11/30 13:16:50;;;;;;;;;12.75;10.00;;;;;;;;5034218;28;45398;-72
2021/11/30 13:19:16;;;;;;;;;9.75;9.25;;;;;;;;5034913;28;45371;-73
2021/11/30 13:21:41;;;;;;;;;11.75;10.75;;;;;;;;5034990;28;46085;-73
2021/11/30 13:24:08;;;;;;;;;17.00;15.50;;;;;;;;5035654;28;45414;-74
2021/11/30 13:26:34;;;;;;;;;10.75;5.50;;;;;;;;5034766;28;45461;-73
2021/11/30 13:28:59;;;;;;;;;11.50;10.75;;;;;;;;5034889;28;45330;-73
2021/11/30 13:31:25;;;;;;;;;12.75;12.25;;;;;;;;5033847;28;45525;-73
2021/11/30 13:33:50;;;;;;;;;11.50;11.50;;;;;;;;5034551;28;45326;-72
2021/11/30 13:36:16;;;;;;;;;12.00;12.00;;;;;;;;5033722;28;45496;-72
2021/11/30 13:38:47;;;;;;;;;14.50;14.00;;;;;;;;5034274;28;46205;-73
2021/11/30 13:41:14;;;;;;;;;11.00;7.00;;;;;;;;5034027;28;45437;-72
2021/11/30 13:43:43;;;;;;;;;11.50;10.75;;;;;;;;5034485;28;45514;-74
2021/11/30 13:46:10;;;;;;;;;14.25;13.25;;;;;;;;5034237;28;45381;-73
2021/11/30 13:48:38;;;;;;;;;12.75;10.50;;;;;;;;5034365;28;45357;-72
2021/11/30 13:51:16;;;;;;;;;14.00;9.75;;;;;;;;5034132;28;45401;-73
2021/11/30 13:54:01;;;;;;;;;17.75;15.75;;;;;;;;5034720;28;45272;-73
2021/11/30 13:56:33;;;;;;;;;17.50;14.75;;;;;;;;5034159;28;45519;-73
2021/11/30 14:01:38;;;;;;;;;14.00;14.00;;;;;;;;5034171;28;45570;-73
2021/11/30 14:04:07;;;;;;;;;19.25;18.25;;;;;;;;5017879;28;45453;-73
2021/11/30 14:06:33;;;;;;;;;21.50;19.00;;;;;;;;5034603;28;45480;-73
2021/11/30 14:09:09;;;;;;;;;14.50;14.50;;;;;;;;5033853;28;46026;-74
2021/11/30 14:11:36;;;;;;;;;14.50;14.00;;;;;;;;5033787;28;45451;-73
2021/11/30 14:14:02;;;;;;;;;20.00;16.75;;;;;;;;5033784;28;45404;-73
2021/11/30 14:16:27;;;;;;;;;14.75;14.25;;;;;;;;5033766;28;45381;-73
2021/11/30 14:18:55;;;;;;;;;17.50;11.25;;;;;;;;5033723;28;46506;-73
2021/11/30 14:21:22;;;;;;;;;20.75;18.50;;;;;;;;5034808;28;45318;-74
2021/11/30 14:24:06;;;;;;;;;12.25;12.00;;;;;;;;5033961;28;45715;-74
2021/11/30 14:26:32;;;;;;;;;12.75;11.25;;;;;;;;5032781;28;45333;-73
2021/11/30 14:29:02;;;;;;;;;15.50;13.00;;;;;;;;5033092;28;46096;-74
2021/11/30 14:31:48;;;;;;;;;13.00;13.00;;;;;;;;5033173;28;45281;-74
2021/11/30 14:34:13;;;;;;;;;17.00;14.75;;;;;;;;5019802;28;45479;-72
2021/11/30 14:36:39;;;;;;;;;13.50;11.25;;;;;;;;5033745;28;45415;-73